Waldorf, MN (56091)

10:13 AM CST on February 14, 2016 (GMT -0600)
Blue Valley Sod | | Change Station
CLOSE
Current Station
Personal Weather Station
Location: Mapleton, MN
Elevation: 1014 ft
Nearby Weather Stations

Elev 1014 ft 43.94 °N, 93.83 °W | Updated 7 minutes ago

Overcast
Overcast
16.0 °F
Feels Like 6 °F
N
7.0
Wind Variable Wind from South
Gusts 16.0 mph

Today
High -- | Low -- °F
--% Chance of Precip.
Yesterday
High -- | Low -- °F
Precip. -- in
Pressure 30.00 in
Visibility 3.0 miles
Clouds Scattered Clouds 2000 ft
Mostly Cloudy 2600 ft
Overcast 3600 ft
Windchill 6 °F
Dew Point 13 °F
Humidity 88%
Rainfall 0.00 in
Snow Depth Not available.
7:15 AM 5:42 PM
Waxing Crescent, 43% visible
METAR KACQ 141555Z AUTO 13016G19KT 3SM -SN SCT020 BKN026 OVC036 M08/M11 A3000 RMK AO2
Pressure 30.00 in
Visibility 3.0 miles
Clouds Scattered Clouds 2000 ft
Mostly Cloudy 2600 ft
Overcast 3600 ft
Windchill 6 °F
Dew Point 13 °F
Humidity 88%
Rainfall 0.00 in
Snow Depth Not available.
7:15 AM 5:42 PM
Waxing Crescent, 43% visible
METAR KACQ 141555Z AUTO 13016G19KT 3SM -SN SCT020 BKN026 OVC036 M08/M11 A3000 RMK AO2

10-Day Weather Forecast

Almanac

Astronomy

Feb. 14, 2016 Rise Set
Actual Time
Civil Twilight
Nautical Twilight
Astronomical Twilight
Moon
Length of Visible Light
Length of Day
Tomorrow will be .
, % of the Moon is Illuminated

Today's Extremes

State Highs State Lows

Community

WunderPhotos

Upload Photos

1,892,828 photos uploaded!

WunderBlog® & News

Nearby

Air Quality

  Air Quality AQ Index Pollutant
Not available.

Snow Depth

Station Depth Elevation

Earthquake Activity

City Distance Mag. Time & Date
Minimum magnitude displayed is 2.5.

Coastal Water Temperatures

Place Temperature

Stations

Nearby Weather Stations

Station Location Temp. Windchill Dew Point Humidity Wind Precip. Elev Updated Type
                   

Watches & Warnings

There are currently no watches in effect.